CBZ9 weather

Fraser Lake Airport
Fraser Lake, British Columbia, Canada

Public forecast

Using degrees Celsius for public forecast. Weather courtesy of forecast.io.

METAR (pilot weather report)

Closest report is Prince George Airport, 74.2 nm (137.4 km) E. Retrieved 2019/08/20 02:21 UTC (7 minutes ago):

CYXS 200221Z AUTO 33006KT 9SM -RA FEW045 OVC070 15/10 A2993 RMK SLP144 DENSITY ALT 2800FT

TAF (pilot weather forecast)

Closest forecast is Prince George Airport, 74.2 nm (137.4 km) E. Retrieved 2019/08/20 01:39 UTC (49 minutes ago):

TAF CYXS 200038Z 2001/2013 VRB03KT P6SM BKN120 FM200300 36008KT P6SM BKN080 FM200900 VRB03KT P6SM BKN080 TEMPO 2009/2013 2SM BR PROB30 2009/2013 1SM BR RMK FCST BASED ON AUTO OBS. NXT FCST BY 200700Z